createdAt,value
2018-07-16T00:00:25.542Z,101537.61
2018-07-16T00:02:53.917Z,101537.17
2018-07-16T00:05:22.342Z,101535.87
2018-07-16T00:07:50.722Z,101535.44
2018-07-16T00:10:19.148Z,101536.77
2018-07-16T00:12:47.553Z,101530.62
2018-07-16T00:15:15.959Z,101535.44
2018-07-16T00:17:44.343Z,101531.93
2018-07-16T00:20:12.754Z,101531.07
2018-07-16T00:22:41.130Z,101531.93
2018-07-16T00:25:09.557Z,101534.12
2018-07-16T00:27:37.927Z,101528.00
2018-07-16T00:30:06.339Z,101528.45
2018-07-16T00:32:34.713Z,101528.86
2018-07-16T00:35:03.141Z,101524.94
2018-07-16T00:37:31.527Z,101532.80
2018-07-16T00:39:59.934Z,101534.54
2018-07-16T00:42:28.305Z,101538.90
2018-07-16T00:44:56.690Z,101528.00
2018-07-16T00:47:25.085Z,101534.53
2018-07-16T00:49:53.453Z,101535.41
2018-07-16T00:52:21.841Z,101530.60
2018-07-16T00:54:50.218Z,101531.48
2018-07-16T00:57:18.610Z,101527.11
2018-07-16T00:59:46.995Z,101530.98
2018-07-16T01:02:15.394Z,101533.16
2018-07-16T01:04:43.778Z,101537.55
2018-07-16T01:07:12.187Z,101538.41
2018-07-16T01:09:40.582Z,101536.19
2018-07-16T01:12:09.135Z,101536.21
2018-07-16T01:14:37.544Z,101541.43
2018-07-16T01:17:06.105Z,101535.75
2018-07-16T01:19:34.474Z,101535.28
2018-07-16T01:22:02.893Z,101535.73
2018-07-16T01:24:31.301Z,101539.63
2018-07-16T01:26:59.738Z,101533.93
2018-07-16T01:29:28.113Z,101534.38
2018-07-16T01:31:56.653Z,101539.58
2018-07-16T01:34:25.035Z,101531.72
2018-07-16T01:36:53.431Z,101533.03
2018-07-16T01:39:21.811Z,101526.02
2018-07-16T01:41:50.183Z,101528.61
2018-07-16T01:44:18.586Z,101527.30
2018-07-16T01:46:46.953Z,101525.55
2018-07-16T01:49:15.347Z,101525.09
2018-07-16T01:51:43.742Z,101522.47
2018-07-16T01:54:12.146Z,101522.89
2018-07-16T01:56:40.526Z,101519.83
2018-07-16T01:59:08.934Z,101520.71
2018-07-16T02:01:37.315Z,101511.51
2018-07-16T02:04:05.739Z,101519.38
2018-07-16T02:06:34.128Z,101518.92
2018-07-16T02:09:02.534Z,101518.89
2018-07-16T02:11:30.920Z,101516.26
2018-07-16T02:13:59.374Z,101511.91
2018-07-16T02:16:27.782Z,101509.27
2018-07-16T02:18:56.183Z,101507.51
2018-07-16T02:21:24.579Z,101509.25
2018-07-16T02:23:53.092Z,101514.90
2018-07-16T02:26:21.470Z,101514.01
2018-07-16T02:28:49.851Z,101520.54
2018-07-16T02:31:18.350Z,101515.67
2018-07-16T02:33:46.743Z,101522.20
2018-07-16T02:36:15.151Z,101512.99
2018-07-16T02:38:43.531Z,101516.02
2018-07-16T02:41:11.939Z,101513.36
2018-07-16T02:43:40.325Z,101512.45
2018-07-16T02:46:08.726Z,101516.38
2018-07-16T02:48:37.106Z,101512.41
2018-07-16T02:51:05.572Z,101508.50
2018-07-16T02:53:33.946Z,101513.27
2018-07-16T02:56:02.350Z,101508.46
2018-07-16T02:58:30.738Z,101501.91
2018-07-16T03:00:59.139Z,101500.58
2018-07-16T03:03:27.539Z,101501.02
2018-07-16T03:05:55.958Z,101490.98
2018-07-16T03:08:24.338Z,101494.05
2018-07-16T03:10:52.759Z,101498.37
2018-07-16T03:13:21.177Z,101499.26
2018-07-16T03:15:49.611Z,101505.80
2018-07-16T03:18:17.994Z,101504.51
2018-07-16T03:20:46.411Z,101501.43
2018-07-16T03:23:14.804Z,101506.22
2018-07-16T03:25:43.198Z,101505.81
2018-07-16T03:28:11.612Z,101511.50
2018-07-16T03:30:39.991Z,101508.03
2018-07-16T03:33:08.415Z,101499.73
2018-07-16T03:35:36.795Z,101504.06
2018-07-16T03:38:05.227Z,101501.02
2018-07-16T03:40:33.614Z,101499.26
2018-07-16T03:43:02.020Z,101499.26
2018-07-16T03:45:30.415Z,101503.61
2018-07-16T03:47:58.889Z,101500.99
2018-07-16T03:50:27.226Z,101500.58
2018-07-16T03:52:55.631Z,101497.98
2018-07-16T03:55:24.012Z,101502.81
2018-07-16T03:57:52.951Z,101499.39
2018-07-16T04:00:21.323Z,101503.36
2018-07-16T04:02:49.734Z,101501.64
2018-07-16T04:05:18.684Z,101503.47
2018-07-16T04:07:47.094Z,101490.56
2018-07-16T04:10:15.470Z,101495.01
2018-07-16T04:12:43.893Z,101492.50
2018-07-16T04:15:12.285Z,101492.54
2018-07-16T04:17:40.676Z,101492.16
2018-07-16T04:20:09.567Z,101490.44
2018-07-16T04:22:37.942Z,101496.11
2018-07-16T04:25:06.366Z,101501.34
2018-07-16T04:27:34.747Z,101496.12
2018-07-16T04:30:03.160Z,101495.22
2018-07-16T04:32:31.610Z,101497.43
2018-07-16T04:35:00.029Z,101493.03
2018-07-16T04:37:28.439Z,101493.42
2018-07-16T04:39:56.863Z,101489.48
2018-07-16T04:42:25.246Z,101490.35
2018-07-16T04:44:53.641Z,101491.63
2018-07-16T04:47:22.027Z,101485.52
2018-07-16T04:49:50.437Z,101487.25
2018-07-16T04:52:18.831Z,101489.84
2018-07-16T04:54:47.406Z,101481.92
2018-07-16T04:57:16.010Z,101476.63
2018-07-16T04:59:44.390Z,101478.79
2018-07-16T05:02:12.790Z,101477.92
2018-07-16T05:04:42.474Z,101478.81
2018-07-16T05:07:10.917Z,101477.94
2018-07-16T05:09:39.302Z,101480.58
2018-07-16T05:12:07.701Z,101477.13
2018-07-16T05:14:36.155Z,101475.41
2018-07-16T05:17:04.547Z,101475.85
2018-07-16T05:19:32.926Z,101474.10
2018-07-16T05:22:01.326Z,101472.32
2018-07-16T05:24:29.702Z,101477.12
2018-07-16T05:26:58.106Z,101471.39
2018-07-16T05:29:26.481Z,101464.37
2018-07-16T05:31:55.060Z,101462.59
2018-07-16T05:34:23.318Z,101461.69
2018-07-16T05:36:51.763Z,101467.30
2018-07-16T05:39:20.402Z,101463.31
2018-07-16T05:41:48.808Z,101461.05
2018-07-16T05:44:17.245Z,101464.91
2018-07-16T05:46:45.675Z,101470.14
2018-07-16T05:49:14.049Z,101470.50
2018-07-16T05:51:42.427Z,101465.17
2018-07-16T05:54:10.860Z,101469.92
2018-07-16T05:56:39.237Z,101465.94
2018-07-16T05:59:07.864Z,101462.34
2018-07-16T06:01:36.246Z,101458.34
2018-07-16T06:04:04.646Z,101453.01
2018-07-16T06:06:33.287Z,101452.92
2018-07-16T06:09:01.894Z,101445.40
2018-07-16T06:11:30.279Z,101438.73
2018-07-16T06:13:58.708Z,101437.33
2018-07-16T06:16:27.094Z,101442.58
2018-07-16T06:18:55.515Z,101440.31
2018-07-16T06:21:23.897Z,101439.34
2018-07-16T06:23:52.331Z,101436.11
2018-07-16T06:26:20.727Z,101438.19
2018-07-16T06:28:49.138Z,101438.08
2018-07-16T06:31:17.523Z,101435.73
2018-07-16T06:33:45.958Z,101439.56
2018-07-16T06:36:14.339Z,101442.48
2018-07-16T06:38:42.722Z,101432.23
2018-07-16T06:41:11.477Z,101432.14
2018-07-16T06:43:39.530Z,101436.36
2018-07-16T06:46:07.937Z,101439.22
2018-07-16T06:48:36.320Z,101431.55
2018-07-16T06:51:04.722Z,101441.48
2018-07-16T06:53:33.102Z,101434.75
2018-07-16T06:56:01.516Z,101433.70
2018-07-16T06:58:29.896Z,101431.30
2018-07-16T07:00:58.307Z,101436.38
2018-07-16T07:03:26.691Z,101434.83
2018-07-16T07:05:55.104Z,101433.34
2018-07-16T07:08:23.492Z,101434.91
2018-07-16T07:10:51.938Z,101428.14
2018-07-16T07:13:20.338Z,101431.99
2018-07-16T07:15:48.763Z,101430.91
2018-07-16T07:18:17.262Z,101428.55
2018-07-16T07:20:45.570Z,101425.72
2018-07-16T07:23:13.982Z,101423.83
2018-07-16T07:25:42.358Z,101424.56
2018-07-16T07:28:10.860Z,101422.14
2018-07-16T07:30:39.250Z,101422.48
2018-07-16T07:33:07.668Z,101413.55
2018-07-16T07:35:36.151Z,101419.16
2018-07-16T07:38:04.575Z,101416.37
2018-07-16T07:40:32.955Z,101418.06
2018-07-16T07:43:01.349Z,101411.80
2018-07-16T07:45:29.735Z,101408.61
2018-07-16T07:47:58.139Z,101414.70
2018-07-16T07:50:26.519Z,101421.18
2018-07-16T07:52:54.913Z,101425.39
2018-07-16T07:55:23.719Z,101419.44
2018-07-16T07:57:51.772Z,101414.41
2018-07-16T08:00:20.144Z,101409.77
2018-07-16T08:02:48.566Z,101415.23
2018-07-16T08:05:16.949Z,101417.55
2018-07-16T08:07:45.331Z,101412.34
2018-07-16T08:10:13.743Z,101410.30
2018-07-16T08:12:42.173Z,101402.94
2018-07-16T08:15:10.582Z,101400.45
2018-07-16T08:17:38.983Z,101400.09
2018-07-16T08:20:07.887Z,101406.28
2018-07-16T08:22:36.270Z,101407.66
2018-07-16T08:25:04.694Z,101403.91
2018-07-16T08:27:33.115Z,101408.00
2018-07-16T08:30:01.532Z,101396.61
2018-07-16T08:32:29.953Z,101394.62
2018-07-16T08:34:58.378Z,101395.70
2018-07-16T08:37:26.791Z,101389.67
2018-07-16T08:39:55.207Z,101388.08
2018-07-16T08:42:23.595Z,101386.95
2018-07-16T08:44:52.006Z,101386.73
2018-07-16T08:47:20.443Z,101386.46
2018-07-16T08:49:48.838Z,101389.78
2018-07-16T08:52:17.235Z,101384.70
2018-07-16T08:54:45.723Z,101387.16
2018-07-16T08:57:14.095Z,101387.89
2018-07-16T08:59:42.495Z,101386.33
2018-07-16T09:02:10.930Z,101382.53
2018-07-16T09:04:39.331Z,101385.68
2018-07-16T09:07:07.738Z,101381.75
2018-07-16T09:09:36.262Z,101378.21
2018-07-16T09:12:04.655Z,101384.86
2018-07-16T09:14:33.097Z,101380.95
2018-07-16T09:17:01.563Z,101377.47
2018-07-16T09:19:29.874Z,101372.70
2018-07-16T09:21:58.270Z,101376.34
2018-07-16T09:24:26.652Z,101378.22
2018-07-16T09:26:55.165Z,101377.52
2018-07-16T09:29:23.534Z,101373.39
2018-07-16T09:31:51.955Z,101379.00
2018-07-16T09:34:20.334Z,101380.67
2018-07-16T09:36:48.735Z,101387.48
2018-07-16T09:39:17.106Z,101382.30
2018-07-16T09:41:45.666Z,101378.98
2018-07-16T09:44:14.104Z,101377.47
2018-07-16T09:46:42.466Z,101372.89
2018-07-16T09:49:10.833Z,101370.91
2018-07-16T09:51:39.246Z,101376.81
2018-07-16T09:54:07.816Z,101367.49
2018-07-16T09:56:36.218Z,101366.49
2018-07-16T09:59:04.963Z,101369.48
2018-07-16T10:01:38.850Z,101369.95
2018-07-16T10:04:07.242Z,101363.30
2018-07-16T10:06:35.639Z,101359.59
2018-07-16T10:09:05.106Z,101361.97
2018-07-16T10:11:33.610Z,101359.91
2018-07-16T10:14:02.170Z,101361.77
2018-07-16T10:16:30.775Z,101355.28
2018-07-16T10:18:59.443Z,101358.20
2018-07-16T10:21:27.822Z,101354.92
2018-07-16T10:23:56.284Z,101351.25
2018-07-16T10:26:24.774Z,101346.58
2018-07-16T10:28:53.175Z,101344.98
2018-07-16T10:31:21.546Z,101348.30
2018-07-16T10:33:50.318Z,101344.86
2018-07-16T10:36:18.642Z,101341.92
2018-07-16T10:38:47.051Z,101342.09
2018-07-16T10:41:15.429Z,101340.55
2018-07-16T10:43:43.960Z,101339.87
2018-07-16T10:46:12.339Z,101334.80
2018-07-16T10:48:40.731Z,101327.56
2018-07-16T10:51:09.110Z,101329.37
2018-07-16T10:53:37.530Z,101323.56
2018-07-16T10:56:05.970Z,101329.54
2018-07-16T10:58:34.391Z,101326.46
2018-07-16T11:01:02.776Z,101324.50
2018-07-16T11:03:31.174Z,101328.50
2018-07-16T11:06:03.722Z,101317.61
2018-07-16T11:08:32.134Z,101321.77
2018-07-16T11:11:00.515Z,101325.17
2018-07-16T11:13:28.926Z,101325.94
2018-07-16T11:15:57.323Z,101319.68
2018-07-16T11:18:25.694Z,101317.33
2018-07-16T11:20:54.108Z,101316.16
2018-07-16T11:23:22.504Z,101303.45
2018-07-16T11:25:53.935Z,101302.27
2018-07-16T11:28:22.559Z,101300.01
2018-07-16T11:30:51.573Z,101299.55
2018-07-16T11:33:19.994Z,101303.57
2018-07-16T11:35:48.485Z,101296.98
2018-07-16T11:38:16.995Z,101301.44
2018-07-16T11:40:45.404Z,101295.17
2018-07-16T11:43:13.784Z,101287.06
2018-07-16T11:45:42.359Z,101284.09
2018-07-16T11:48:10.732Z,101278.41
2018-07-16T11:50:39.130Z,101281.25
2018-07-16T11:53:07.622Z,101280.53
2018-07-16T11:55:36.022Z,101269.20
2018-07-16T11:58:04.423Z,101275.39
2018-07-16T12:00:32.802Z,101273.98
2018-07-16T12:03:01.190Z,101267.45
2018-07-16T12:05:29.571Z,101261.81
2018-07-16T12:07:57.962Z,101257.53
2018-07-16T12:10:26.331Z,101261.77
2018-07-16T12:12:54.749Z,101254.91
2018-07-16T12:15:23.137Z,101258.00
2018-07-16T12:17:51.707Z,101253.98
2018-07-16T12:20:20.088Z,101245.87
2018-07-16T12:22:48.495Z,101247.36
2018-07-16T12:25:16.875Z,101245.30
2018-07-16T12:27:45.291Z,101241.00
2018-07-16T12:30:13.874Z,101245.84
2018-07-16T12:32:42.288Z,101239.57
2018-07-16T12:35:10.676Z,101241.25
2018-07-16T12:37:39.075Z,101230.63
2018-07-16T12:40:07.474Z,101232.85
2018-07-16T12:42:35.870Z,101225.16
2018-07-16T12:45:04.259Z,101227.00
2018-07-16T12:47:32.663Z,101220.91
2018-07-16T12:50:01.041Z,101221.78
2018-07-16T12:52:29.438Z,101221.89
2018-07-16T12:54:58.031Z,101219.41
2018-07-16T12:57:26.606Z,101218.81
2018-07-16T12:59:54.989Z,101221.09
2018-07-16T13:02:23.954Z,101215.50
2018-07-16T13:04:52.346Z,101222.16
2018-07-16T13:07:20.723Z,101210.08
2018-07-16T13:09:49.140Z,101210.50
2018-07-16T13:12:17.537Z,101211.79
2018-07-16T13:14:45.978Z,101199.79
2018-07-16T13:17:14.359Z,101201.83
2018-07-16T13:19:42.759Z,101197.39
2018-07-16T13:22:11.138Z,101191.67
2018-07-16T13:24:39.543Z,101185.05
2018-07-16T13:27:07.934Z,101188.20
2018-07-16T13:29:36.333Z,101178.68
2018-07-16T13:32:04.714Z,101180.96
2018-07-16T13:34:33.107Z,101178.67
2018-07-16T13:37:01.540Z,101177.80
2018-07-16T13:39:29.938Z,101177.52
2018-07-16T13:41:58.314Z,101172.23
2018-07-16T13:44:26.686Z,101177.45
2018-07-16T13:46:55.088Z,101162.64
2018-07-16T13:49:23.471Z,101159.00
2018-07-16T13:51:51.879Z,101157.77
2018-07-16T13:54:20.300Z,101155.89
2018-07-16T13:56:48.760Z,101146.28
2018-07-16T13:59:17.143Z,101143.80
2018-07-16T14:01:45.583Z,101136.87
2018-07-16T14:04:13.938Z,101135.26
2018-07-16T14:06:42.351Z,101136.29
2018-07-16T14:09:10.735Z,101137.26
2018-07-16T14:11:39.296Z,101133.81
2018-07-16T14:14:07.694Z,101127.48
2018-07-16T14:16:36.090Z,101124.16
2018-07-16T14:19:04.475Z,101130.94
2018-07-16T14:21:32.976Z,101127.52
2018-07-16T14:24:01.355Z,101128.94
2018-07-16T14:26:29.763Z,101131.72
2018-07-16T14:28:58.138Z,101129.50
2018-07-16T14:31:26.543Z,101124.06
2018-07-16T14:33:54.921Z,101128.15
2018-07-16T14:36:23.294Z,101130.12
2018-07-16T14:38:51.691Z,101121.73
2018-07-16T14:41:20.075Z,101127.45
2018-07-16T14:43:48.582Z,101122.21
2018-07-16T14:46:16.958Z,101123.53
2018-07-16T14:48:45.361Z,101113.67
2018-07-16T14:51:13.902Z,101116.83
2018-07-16T14:53:42.562Z,101118.09
2018-07-16T14:56:10.940Z,101113.39
2018-07-16T14:58:39.418Z,101110.64
2018-07-16T15:01:08.007Z,101107.66
2018-07-16T15:03:36.402Z,101104.05
2018-07-16T15:06:04.781Z,101107.57
2018-07-16T15:08:33.232Z,101102.88
2018-07-16T15:11:01.584Z,101098.10
2018-07-16T15:13:30.007Z,101113.11
2018-07-16T15:15:58.390Z,101106.05
2018-07-16T15:18:26.798Z,101107.09
2018-07-16T15:20:55.299Z,101102.31
2018-07-16T15:23:23.825Z,101097.72
2018-07-16T15:25:52.282Z,101104.56
2018-07-16T15:28:20.790Z,101101.59
2018-07-16T15:30:49.178Z,101099.97
2018-07-16T15:33:17.608Z,101109.73
2018-07-16T15:35:45.999Z,101102.64
2018-07-16T15:38:14.370Z,101095.56
2018-07-16T15:40:42.778Z,101104.09
2018-07-16T15:43:11.155Z,101107.63
2018-07-16T15:45:39.550Z,101112.89
2018-07-16T15:48:07.951Z,101113.83
2018-07-16T15:50:36.371Z,101112.00
2018-07-16T15:53:04.770Z,101117.84
2018-07-16T15:55:33.174Z,101117.84
2018-07-16T15:58:01.542Z,101119.17
2018-07-16T16:00:30.024Z,101116.98
2018-07-16T16:02:58.488Z,101119.66
2018-07-16T16:05:26.846Z,101121.85
2018-07-16T16:07:55.226Z,101118.03
2018-07-16T16:10:23.631Z,101114.50
2018-07-16T16:12:52.084Z,101119.16
2018-07-16T16:15:20.499Z,101117.63
2018-07-16T16:17:48.866Z,101121.02
2018-07-16T16:20:17.267Z,101110.59
2018-07-16T16:22:45.644Z,101116.02
2018-07-16T16:25:14.051Z,101115.36
2018-07-16T16:27:42.426Z,101119.62
2018-07-16T16:30:10.832Z,101118.48
2018-07-16T16:32:39.251Z,101117.92
2018-07-16T16:35:07.796Z,101114.80
2018-07-16T16:37:36.169Z,101120.03
2018-07-16T16:40:04.723Z,101121.50
2018-07-16T16:42:33.131Z,101117.45
2018-07-16T16:45:01.502Z,101113.52
2018-07-16T16:47:29.913Z,101116.57
2018-07-16T16:49:58.403Z,101112.19
2018-07-16T16:52:26.807Z,101108.67
2018-07-16T16:54:55.201Z,101112.44
2018-07-16T16:57:23.602Z,101110.20
2018-07-16T16:59:51.982Z,101111.81
2018-07-16T17:02:20.387Z,101109.83
2018-07-16T17:04:48.778Z,101114.41
2018-07-16T17:07:17.178Z,101116.02
2018-07-16T17:09:45.569Z,101111.36
2018-07-16T17:12:13.978Z,101115.59
2018-07-16T17:14:42.483Z,101118.95
2018-07-16T17:17:12.020Z,101123.67
2018-07-16T17:19:40.400Z,101123.98
2018-07-16T17:22:08.802Z,101122.00
2018-07-16T17:24:37.193Z,101121.59
2018-07-16T17:27:05.594Z,101119.31
2018-07-16T17:29:34.061Z,101118.34
2018-07-16T17:32:02.444Z,101119.67
2018-07-16T17:34:30.849Z,101119.67
2018-07-16T17:36:59.235Z,101119.47
2018-07-16T17:39:27.637Z,101120.44
2018-07-16T17:41:56.023Z,101115.66
2018-07-16T17:44:24.415Z,101119.09
2018-07-16T17:46:52.845Z,101116.72
2018-07-16T17:49:21.258Z,101109.20
2018-07-16T17:51:49.634Z,101105.27
2018-07-16T17:54:18.031Z,101114.13
2018-07-16T17:56:46.402Z,101106.14
2018-07-16T17:59:14.794Z,101117.23
2018-07-16T18:01:43.239Z,101122.05
2018-07-16T18:04:11.602Z,101110.86
2018-07-16T18:06:39.972Z,101109.19
2018-07-16T18:09:09.122Z,101110.05
2018-07-16T18:11:37.671Z,101112.91
2018-07-16T18:14:06.331Z,101112.94
2018-07-16T18:16:34.711Z,101115.87
2018-07-16T18:19:03.091Z,101113.90
2018-07-16T18:21:31.725Z,101116.41
2018-07-16T18:24:00.098Z,101113.19
2018-07-16T18:26:28.499Z,101114.11
2018-07-16T18:28:57.147Z,101118.55
2018-07-16T18:31:25.542Z,101118.14
2018-07-16T18:33:53.922Z,101118.55
2018-07-16T18:36:22.366Z,101122.59
2018-07-16T18:38:50.767Z,101122.05
2018-07-16T18:41:19.168Z,101127.64
2018-07-16T18:43:47.612Z,101125.29
2018-07-16T18:46:16.016Z,101133.96
2018-07-16T18:48:44.615Z,101134.70
2018-07-16T18:51:13.019Z,101139.85
2018-07-16T18:53:41.399Z,101138.41
2018-07-16T18:56:10.782Z,101145.41
2018-07-16T18:58:39.154Z,101151.32
2018-07-16T19:01:07.583Z,101149.77
2018-07-16T19:03:35.965Z,101152.78
2018-07-16T19:06:04.395Z,101158.39
2018-07-16T19:08:32.774Z,101159.64
2018-07-16T19:11:01.169Z,101163.50
2018-07-16T19:13:29.643Z,101162.06
2018-07-16T19:15:58.077Z,101171.23
2018-07-16T19:18:26.487Z,101169.34
2018-07-16T19:20:54.922Z,101173.70
2018-07-16T19:23:23.398Z,101173.22
2018-07-16T19:25:51.906Z,101176.25
2018-07-16T19:28:20.442Z,101176.70
2018-07-16T19:30:48.888Z,101168.70
2018-07-16T19:33:17.420Z,101168.20
2018-07-16T19:35:45.883Z,101172.11
2018-07-16T19:38:14.356Z,101172.84
2018-07-16T19:40:42.769Z,101177.96
2018-07-16T19:43:11.250Z,101178.26
2018-07-16T19:45:39.839Z,101174.58
2018-07-16T19:48:08.301Z,101185.91
2018-07-16T19:50:36.954Z,101183.08
2018-07-16T19:53:05.670Z,101177.13
2018-07-16T19:55:34.238Z,101170.31
2018-07-16T19:58:02.713Z,101176.33
2018-07-16T20:00:31.256Z,101179.61
2018-07-16T20:02:59.664Z,101173.60
2018-07-16T20:05:28.259Z,101173.30
2018-07-16T20:07:56.634Z,101171.28
2018-07-16T20:10:25.035Z,101176.40
2018-07-16T20:12:54.178Z,101180.64
2018-07-16T20:15:22.767Z,101180.02
2018-07-16T20:17:51.194Z,101191.32
2018-07-16T20:20:19.649Z,101181.06
2018-07-16T20:22:48.110Z,101194.11
2018-07-16T20:25:16.863Z,101193.44
2018-07-16T20:27:45.391Z,101193.30
2018-07-16T20:30:13.918Z,101193.52
2018-07-16T20:32:42.363Z,101187.58
2018-07-16T20:35:10.802Z,101189.94
2018-07-16T20:37:39.304Z,101193.19
2018-07-16T20:40:07.785Z,101195.98
2018-07-16T20:42:36.449Z,101191.33
2018-07-16T20:45:04.851Z,101191.03
2018-07-16T20:47:33.254Z,101190.74
2018-07-16T20:50:01.630Z,101187.34
2018-07-16T20:52:30.027Z,101188.41
2018-07-16T20:54:58.420Z,101183.74
2018-07-16T20:57:26.822Z,101187.91
2018-07-16T20:59:55.198Z,101189.41
2018-07-16T21:02:23.599Z,101190.92
2018-07-16T21:04:51.972Z,101181.33
2018-07-16T21:07:20.451Z,101182.35
2018-07-16T21:09:48.823Z,101178.48
2018-07-16T21:12:17.319Z,101180.76
2018-07-16T21:14:45.932Z,101180.33
2018-07-16T21:17:14.402Z,101181.28
2018-07-16T21:19:42.766Z,101176.95
2018-07-16T21:22:11.179Z,101176.13
2018-07-16T21:24:39.574Z,101174.04
2018-07-16T21:27:07.953Z,101177.17
2018-07-16T21:29:36.353Z,101175.45
2018-07-16T21:32:04.732Z,101174.62
2018-07-16T21:34:33.130Z,101177.36
2018-07-16T21:37:01.512Z,101172.97
2018-07-16T21:39:29.906Z,101178.38
2018-07-16T21:41:58.287Z,101181.58
2018-07-16T21:44:26.682Z,101175.52
2018-07-16T21:46:55.090Z,101176.48
2018-07-16T21:49:23.485Z,101170.88
2018-07-16T21:51:51.864Z,101176.75
2018-07-16T21:54:20.287Z,101176.07
2018-07-16T21:56:48.660Z,101180.18
2018-07-16T21:59:17.135Z,101182.97
2018-07-16T22:01:45.503Z,101180.90
2018-07-16T22:04:13.878Z,101177.56
2018-07-16T22:06:42.283Z,101177.34
2018-07-16T22:09:10.679Z,101174.92
2018-07-16T22:11:39.092Z,101172.09
2018-07-16T22:14:07.489Z,101172.85
2018-07-16T22:16:35.890Z,101174.95
2018-07-16T22:19:04.698Z,101164.28
2018-07-16T22:21:33.103Z,101169.80
2018-07-16T22:24:01.488Z,101167.81
2018-07-16T22:26:30.070Z,101165.42
2018-07-16T22:28:58.464Z,101163.85
2018-07-16T22:31:26.881Z,101159.63
2018-07-16T22:33:55.278Z,101158.81
2018-07-16T22:36:23.690Z,101160.27
2018-07-16T22:38:52.071Z,101159.06
2018-07-16T22:41:20.474Z,101164.94
2018-07-16T22:43:48.854Z,101162.86
2018-07-16T22:46:17.554Z,101164.23
2018-07-16T22:48:45.939Z,101166.91
2018-07-16T22:51:14.338Z,101162.91
2018-07-16T22:53:42.719Z,101165.55
2018-07-16T22:56:11.100Z,101163.79
2018-07-16T22:58:39.505Z,101167.30
2018-07-16T23:01:07.907Z,101172.58
2018-07-16T23:03:36.469Z,101179.15
2018-07-16T23:06:04.870Z,101183.03
2018-07-16T23:08:33.261Z,101174.66
2018-07-16T23:11:01.643Z,101175.95
2018-07-16T23:13:30.062Z,101176.80
2018-07-16T23:15:58.430Z,101174.55
2018-07-16T23:18:26.834Z,101179.36
2018-07-16T23:20:56.811Z,101183.23
2018-07-16T23:23:25.210Z,101177.05
2018-07-16T23:25:53.589Z,101174.34
2018-07-16T23:28:21.986Z,101165.94
2018-07-16T23:30:50.370Z,101167.64
2018-07-16T23:33:18.778Z,101165.84
2018-07-16T23:35:47.157Z,101165.34
2018-07-16T23:38:15.539Z,101161.81
2018-07-16T23:40:43.943Z,101160.45
2018-07-16T23:43:12.328Z,101156.48
2018-07-16T23:45:40.725Z,101155.68
2018-07-16T23:48:09.115Z,101157.88
2018-07-16T23:50:37.517Z,101161.91
2018-07-16T23:53:06.590Z,101163.30
2018-07-16T23:55:34.985Z,101157.20
2018-07-16T23:58:03.366Z,101161.69
